Time;durP1;ratioP1;P1;durP2;ratioP2;P2;SDS_P1;SDS_P2;PMS_P1;PMS_P2;Temp;Humidity;BMP_temperature;BMP_pressure;BME280_temperature;BME280_humidity;BME280_pressure;Samples;Min_cycle;Max_cycle;Signal;HPM_P1;HPM_P2
2022/12/06 00:00:09;;;;;;;23.67;10.80;;;;;;;;;;2122711;28;20043;-46
2022/12/06 00:01:11;;;;;;;21.02;10.82;;;;;;;;;;2122362;28;20495;-46
2022/12/06 00:02:12;;;;;;;19.80;10.23;;;;;;;;;;2122480;28;20051;-45
2022/12/06 00:03:13;;;;;;;24.67;10.70;;;;;;;;;;2122303;27;20054;-46
2022/12/06 00:04:15;;;;;;;26.23;11.07;;;;;;;;;;2122330;28;20051;-46
2022/12/06 00:05:16;;;;;;;25.67;10.25;;;;;;;;;;2122479;28;20372;-45
2022/12/06 00:06:19;;;;;;;20.58;10.38;;;;;;;;;;2122468;28;20051;-46
2022/12/06 00:07:20;;;;;;;22.85;10.88;;;;;;;;;;2122253;28;20050;-45
2022/12/06 00:08:21;;;;;;;21.90;10.13;;;;;;;;;;2122271;27;20047;-46
2022/12/06 00:09:22;;;;;;;22.80;9.87;;;;;;;;;;2122462;28;20387;-46
2022/12/06 00:10:24;;;;;;;20.17;10.23;;;;;;;;;;2122295;28;20051;-46
2022/12/06 00:11:26;;;;;;;22.83;10.88;;;;;;;;;;2122470;28;20043;-45
2022/12/06 00:12:27;;;;;;;25.25;11.25;;;;;;;;;;2122204;28;20111;-45
2022/12/06 00:13:29;;;;;;;21.13;10.43;;;;;;;;;;2122187;27;20039;-46
2022/12/06 00:14:30;;;;;;;26.30;11.25;;;;;;;;;;2122375;28;20046;-46
2022/12/06 00:15:34;;;;;;;23.77;10.57;;;;;;;;;;2122553;28;20037;-45
2022/12/06 00:16:35;;;;;;;25.50;10.50;;;;;;;;;;2122272;28;20047;-45
2022/12/06 00:17:36;;;;;;;24.83;12.35;;;;;;;;;;2122455;28;20039;-45
2022/12/06 00:18:44;;;;;;;26.08;10.27;;;;;;;;;;2122633;27;20134;-46
2022/12/06 00:19:45;;;;;;;21.13;9.93;;;;;;;;;;2122728;28;20039;-46
2022/12/06 00:20:46;;;;;;;23.90;11.30;;;;;;;;;;2123796;28;20057;-45
2022/12/06 00:21:48;;;;;;;59.03;20.87;;;;;;;;;;2123789;28;20079;-46
2022/12/06 00:22:49;;;;;;;90.32;30.52;;;;;;;;;;2123654;27;20116;-45
2022/12/06 00:23:51;;;;;;;39.43;16.00;;;;;;;;;;2123690;28;20043;-45
2022/12/06 00:24:52;;;;;;;31.48;12.90;;;;;;;;;;2123819;28;20051;-46
2022/12/06 00:25:53;;;;;;;39.90;15.30;;;;;;;;;;2123731;28;20062;-46
2022/12/06 00:26:54;;;;;;;80.55;26.67;;;;;;;;;;2123806;28;20047;-44
2022/12/06 00:27:55;;;;;;;44.67;18.20;;;;;;;;;;2127493;27;20039;-43
2022/12/06 00:28:57;;;;;;;42.05;17.35;;;;;;;;;;2132389;27;20046;-45
2022/12/06 00:29:59;;;;;;;23.50;11.00;;;;;;;;;;2132206;27;20406;-44
2022/12/06 00:31:00;;;;;;;56.05;20.50;;;;;;;;;;2132259;27;20133;-44
2022/12/06 00:32:02;;;;;;;33.25;14.05;;;;;;;;;;2132280;27;20068;-44
2022/12/06 00:33:02;;;;;;;48.65;18.17;;;;;;;;;;2132157;27;20052;-45
2022/12/06 00:34:04;;;;;;;29.77;13.63;;;;;;;;;;2132131;27;20054;-44
2022/12/06 00:35:05;;;;;;;42.95;17.27;;;;;;;;;;2132207;27;20099;-44
2022/12/06 00:36:09;;;;;;;33.78;14.63;;;;;;;;;;2132350;27;20039;-44
2022/12/06 00:37:09;;;;;;;34.20;14.43;;;;;;;;;;2132214;27;20099;-44
2022/12/06 00:38:11;;;;;;;19.20;9.33;;;;;;;;;;2132272;27;20047;-45
2022/12/06 00:39:13;;;;;;;27.73;12.65;;;;;;;;;;2132499;27;20122;-45
2022/12/06 00:40:14;;;;;;;;;;;;;;;;;;2132797;27;20054;-44
2022/12/06 00:41:16;;;;;;;21.40;10.02;;;;;;;;;;2132403;27;20342;-44
2022/12/06 00:42:17;;;;;;;;;;;;;;;;;;2132629;27;20043;-44
2022/12/06 00:43:17;;;;;;;36.33;12.98;;;;;;;;;;2124638;27;20350;-45
2022/12/06 00:44:19;;;;;;;24.03;10.47;;;;;;;;;;2123578;28;20043;-44
2022/12/06 00:45:20;;;;;;;28.05;12.35;;;;;;;;;;2123810;28;20047;-44
2022/12/06 00:46:22;;;;;;;42.43;16.77;;;;;;;;;;2123636;28;20130;-45
2022/12/06 00:47:23;;;;;;;35.55;14.05;;;;;;;;;;2123605;28;20487;-44
2022/12/06 00:48:24;;;;;;;32.13;13.27;;;;;;;;;;2123589;27;20070;-45
2022/12/06 00:49:25;;;;;;;45.35;18.98;;;;;;;;;;2123543;28;20404;-44
2022/12/06 00:50:26;;;;;;;40.43;17.53;;;;;;;;;;2123654;28;20043;-44
2022/12/06 00:51:28;;;;;;;35.22;13.25;;;;;;;;;;2123670;28;20039;-44
2022/12/06 00:52:29;;;;;;;36.30;14.70;;;;;;;;;;2123595;28;20051;-45
2022/12/06 00:53:30;;;;;;;22.23;9.98;;;;;;;;;;2123346;27;20047;-45
2022/12/06 00:54:31;;;;;;;24.83;11.87;;;;;;;;;;2123715;28;20039;-45
2022/12/06 00:55:32;;;;;;;49.13;21.08;;;;;;;;;;2123446;28;20054;-45
2022/12/06 00:56:34;;;;;;;37.63;16.83;;;;;;;;;;2123718;28;20517;-45
2022/12/06 00:57:35;;;;;;;36.33;14.55;;;;;;;;;;2123541;28;20047;-46
2022/12/06 00:58:36;;;;;;;34.38;13.82;;;;;;;;;;2123514;27;20540;-45
2022/12/06 00:59:37;;;;;;;26.38;12.10;;;;;;;;;;2123555;28;20047;-45
2022/12/06 01:00:39;;;;;;;50.45;21.40;;;;;;;;;;2123588;28;20044;-46
2022/12/06 01:01:40;;;;;;;43.33;18.50;;;;;;;;;;2123545;28;20046;-46
2022/12/06 01:02:41;;;;;;;28.40;11.23;;;;;;;;;;2123433;27;20475;-45
2022/12/06 01:03:42;;;;;;;23.60;11.18;;;;;;;;;;2123555;28;20065;-46
2022/12/06 01:04:44;;;;;;;22.33;10.07;;;;;;;;;;2123637;28;20388;-45
2022/12/06 01:05:46;;;;;;;30.98;14.40;;;;;;;;;;2123463;28;20055;-46
2022/12/06 01:06:47;;;;;;;;;;;;;;;;;;2123918;28;20040;-45
2022/12/06 01:07:47;;;;;;;24.23;10.73;;;;;;;;;;2123386;27;19970;-45
2022/12/06 01:08:49;;;;;;;30.38;13.18;;;;;;;;;;2123534;28;20047;-45
2022/12/06 01:09:50;;;;;;;38.03;14.75;;;;;;;;;;2123598;28;20051;-46
2022/12/06 01:10:52;;;;;;;34.22;15.48;;;;;;;;;;2123635;28;20043;-46
2022/12/06 01:11:53;;;;;;;29.02;11.48;;;;;;;;;;2123513;28;20054;-46
2022/12/06 01:12:54;;;;;;;34.88;15.35;;;;;;;;;;2123407;27;20051;-45
2022/12/06 01:13:55;;;;;;;48.67;18.95;;;;;;;;;;2123376;28;20077;-46
2022/12/06 01:14:57;;;;;;;24.15;11.95;;;;;;;;;;2123729;28;20051;-46
2022/12/06 01:16:03;;;;;;;32.83;14.38;;;;;;;;;;2123336;28;20399;-45
2022/12/06 01:17:04;;;;;;;34.95;14.77;;;;;;;;;;2123495;28;20058;-45
2022/12/06 01:18:05;;;;;;;41.03;16.27;;;;;;;;;;2123305;27;20547;-46
2022/12/06 01:19:06;;;;;;;28.30;13.82;;;;;;;;;;2123510;28;20047;-45
2022/12/06 01:20:07;;;;;;;28.13;11.93;;;;;;;;;;2123250;28;20399;-45
2022/12/06 01:21:09;;;;;;;30.38;13.60;;;;;;;;;;2123716;28;20058;-41
2022/12/06 01:22:10;;;;;;;30.00;12.20;;;;;;;;;;2123354;28;20054;-41
2022/12/06 01:23:12;;;;;;;34.37;14.20;;;;;;;;;;2123170;27;20138;-41
2022/12/06 01:24:13;;;;;;;19.83;10.88;;;;;;;;;;2127601;27;20038;-41
2022/12/06 01:25:14;;;;;;;25.40;11.10;;;;;;;;;;2132108;27;20414;-41
2022/12/06 01:26:16;;;;;;;28.70;13.48;;;;;;;;;;2131835;27;20046;-41
2022/12/06 01:27:17;;;;;;;26.35;12.20;;;;;;;;;;2131873;27;20095;-41
2022/12/06 01:28:18;;;;;;;33.10;14.02;;;;;;;;;;2131853;27;20053;-41
2022/12/06 01:29:19;;;;;;;43.42;15.45;;;;;;;;;;2131810;27;20082;-41
2022/12/06 01:30:21;;;;;;;31.83;14.32;;;;;;;;;;2131931;27;20054;-41
2022/12/06 01:31:22;;;;;;;35.03;14.02;;;;;;;;;;2131894;27;20046;-41
2022/12/06 01:32:23;;;;;;;28.05;12.30;;;;;;;;;;2131958;27;20070;-41
2022/12/06 01:33:25;;;;;;;30.88;14.50;;;;;;;;;;2131733;27;20452;-41
2022/12/06 01:34:26;;;;;;;55.40;20.23;;;;;;;;;;2131854;27;20478;-40
2022/12/06 01:35:27;;;;;;;152.82;48.40;;;;;;;;;;2131848;27;20043;-41
2022/12/06 01:36:28;;;;;;;42.50;18.05;;;;;;;;;;2131855;27;20402;-40
2022/12/06 01:37:29;;;;;;;62.72;23.65;;;;;;;;;;2131851;27;20051;-40
2022/12/06 01:38:30;;;;;;;48.80;20.80;;;;;;;;;;2131690;27;20498;-41
2022/12/06 01:39:31;;;;;;;55.17;22.08;;;;;;;;;;2131938;27;20049;-41
2022/12/06 01:40:35;;;;;;;34.28;14.07;;;;;;;;;;2131805;27;20115;-41
2022/12/06 01:41:37;;;;;;;42.50;15.95;;;;;;;;;;2131842;27;20054;-40
2022/12/06 01:42:38;;;;;;;87.10;32.83;;;;;;;;;;2129925;27;20279;-40
2022/12/06 01:43:41;;;;;;;119.60;44.08;;;;;;;;;;2123499;28;20448;-40
2022/12/06 01:44:43;;;;;;;73.50;25.20;;;;;;;;;;2123308;28;20039;-44
2022/12/06 01:45:45;;;;;;;68.45;23.40;;;;;;;;;;2123159;28;20392;-45
2022/12/06 01:46:46;;;;;;;110.35;36.90;;;;;;;;;;2123121;28;20747;-45
2022/12/06 01:47:47;;;;;;;74.53;25.60;;;;;;;;;;2123157;27;20054;-45
2022/12/06 01:48:50;;;;;;;122.13;41.97;;;;;;;;;;2123190;28;20487;-45
2022/12/06 01:49:52;;;;;;;135.98;43.17;;;;;;;;;;2123292;28;20047;-47
2022/12/06 01:50:53;;;;;;;;;;;;;;;;;;2123687;28;20104;-46
2022/12/06 01:51:55;;;;;;;54.80;19.50;;;;;;;;;;2123181;28;19924;-44
2022/12/06 01:52:58;;;;;;;35.58;16.45;;;;;;;;;;2123055;27;20283;-44
2022/12/06 01:54:00;;;;;;;48.97;20.65;;;;;;;;;;2123142;28;20299;-40
2022/12/06 01:55:02;;;;;;;48.42;21.85;;;;;;;;;;2123276;28;20047;-41
2022/12/06 01:56:03;;;;;;;30.25;14.25;;;;;;;;;;2123084;28;20118;-41
2022/12/06 01:57:06;;;;;;;30.45;14.40;;;;;;;;;;2123075;28;20491;-41
2022/12/06 01:58:09;;;;;;;52.63;25.80;;;;;;;;;;2123065;27;20047;-40
2022/12/06 01:59:10;;;;;;;29.55;15.10;;;;;;;;;;2123082;28;20279;-41
2022/12/06 02:00:12;;;;;;;40.35;20.48;;;;;;;;;;2123081;28;20290;-40
2022/12/06 02:01:14;;;;;;;58.33;26.23;;;;;;;;;;2123442;28;20051;-41
2022/12/06 02:02:15;;;;;;;32.08;15.52;;;;;;;;;;2123161;28;20050;-41
2022/12/06 02:03:18;;;;;;;31.63;15.50;;;;;;;;;;2122909;27;20043;-42
2022/12/06 02:04:19;;;;;;;26.05;12.75;;;;;;;;;;2123134;28;20073;-41
2022/12/06 02:05:20;;;;;;;31.42;14.65;;;;;;;;;;2123008;28;20293;-41
2022/12/06 02:06:21;;;;;;;28.33;14.80;;;;;;;;;;2123166;28;20062;-40
2022/12/06 02:07:23;;;;;;;23.70;12.27;;;;;;;;;;2123099;28;20043;-40
2022/12/06 02:08:25;;;;;;;25.95;11.38;;;;;;;;;;2122943;27;20490;-41
2022/12/06 02:09:27;;;;;;;26.40;13.10;;;;;;;;;;2123060;28;20391;-40
2022/12/06 02:10:28;;;;;;;28.40;12.80;;;;;;;;;;2123170;28;20050;-40
2022/12/06 02:11:29;;;;;;;22.25;9.25;;;;;;;;;;2123058;28;20687;-40
2022/12/06 02:12:36;;;;;;;27.83;9.70;;;;;;;;;;2123051;28;20515;-40
2022/12/06 02:13:37;;;;;;;30.80;15.23;;;;;;;;;;2122809;27;20491;-40
2022/12/06 02:14:39;;;;;;;33.38;14.55;;;;;;;;;;2123235;28;20403;-40
2022/12/06 02:15:49;;;;;;;22.77;12.73;;;;;;;;;;2123273;28;20070;-45
2022/12/06 02:16:57;;;;;;;20.80;11.00;;;;;;;;;;2123087;28;20075;-44
2022/12/06 02:18:02;;;;;;;21.25;11.18;;;;;;;;;;2122900;27;20370;-45
2022/12/06 02:19:12;;;;;;;18.52;10.00;;;;;;;;;;2122968;28;20116;-45
2022/12/06 02:20:17;;;;;;;21.85;10.10;;;;;;;;;;2125167;27;20283;-45
2022/12/06 02:21:24;;;;;;;22.05;9.40;;;;;;;;;;2131364;27;20283;-45
2022/12/06 02:22:29;;;;;;;17.30;9.02;;;;;;;;;;2131955;27;20043;-41
2022/12/06 02:23:48;;;;;;;18.42;9.30;;;;;;;;;;2131446;27;20046;-41
2022/12/06 02:24:58;;;;;;;21.38;10.43;;;;;;;;;;2114381;27;20058;-41
2022/12/06 02:26:10;;;;;;;21.48;9.90;;;;;;;;;;2131505;27;20403;-41
2022/12/06 02:27:25;;;;;;;19.33;9.50;;;;;;;;;;2131501;27;20047;-40
2022/12/06 02:28:37;;;;;;;25.35;11.80;;;;;;;;;;2131566;27;20047;-41
2022/12/06 02:29:58;;;;;;;22.90;9.65;;;;;;;;;;2131564;27;20278;-41
2022/12/06 02:31:03;;;;;;;19.48;9.52;;;;;;;;;;2131669;27;20117;-40
2022/12/06 02:32:08;;;;;;;25.17;10.10;;;;;;;;;;2131370;27;20051;-41
2022/12/06 02:33:10;;;;;;;20.38;9.98;;;;;;;;;;2131302;27;20050;-41
2022/12/06 02:34:13;;;;;;;21.10;9.88;;;;;;;;;;2131304;27;20056;-41
2022/12/06 02:35:19;;;;;;;19.00;10.18;;;;;;;;;;2131700;27;20054;-41
2022/12/06 02:36:25;;;;;;;20.35;9.27;;;;;;;;;;2131656;27;20278;-41
2022/12/06 02:37:30;;;;;;;18.13;8.60;;;;;;;;;;2131468;27;20039;-41
2022/12/06 02:38:32;;;;;;;18.98;9.38;;;;;;;;;;2131341;27;20043;-41
2022/12/06 02:39:35;;;;;;;16.65;8.70;;;;;;;;;;2131317;27;20506;-41
2022/12/06 02:40:40;;;;;;;18.20;9.15;;;;;;;;;;2131489;27;20039;-41
2022/12/06 02:41:45;;;;;;;21.23;9.38;;;;;;;;;;2131476;27;20039;-41
2022/12/06 02:42:48;;;;;;;18.67;10.02;;;;;;;;;;2127723;27;20463;-41
2022/12/06 02:43:52;;;;;;;20.85;9.55;;;;;;;;;;2122754;28;20047;-41
2022/12/06 02:44:54;;;;;;;23.13;10.82;;;;;;;;;;2122931;28;20316;-41
2022/12/06 02:45:56;;;;;;;27.13;11.75;;;;;;;;;;2122733;28;20475;-41
2022/12/06 02:46:58;;;;;;;19.83;8.52;;;;;;;;;;2122835;28;20070;-41
2022/12/06 02:48:01;;;;;;;18.23;8.02;;;;;;;;;;2122896;27;20290;-45
2022/12/06 02:49:03;;;;;;;20.77;9.30;;;;;;;;;;2122811;28;20108;-45
2022/12/06 02:50:04;;;;;;;;;;;;;;;;;;2123382;28;20283;-41
2022/12/06 02:51:07;;;;;;;22.58;9.85;;;;;;;;;;2122932;28;19919;-41
2022/12/06 02:52:08;;;;;;;26.48;11.10;;;;;;;;;;2122722;28;20047;-41
2022/12/06 02:53:11;;;;;;;16.13;8.25;;;;;;;;;;2122814;27;20343;-41
2022/12/06 02:54:13;;;;;;;19.05;9.68;;;;;;;;;;2122735;28;20055;-40
2022/12/06 02:55:15;;;;;;;18.45;9.20;;;;;;;;;;2122793;28;20283;-40
2022/12/06 02:56:16;;;;;;;18.92;9.07;;;;;;;;;;2122820;28;20058;-40
2022/12/06 02:57:18;;;;;;;21.25;8.82;;;;;;;;;;2122687;28;20051;-40
2022/12/06 02:58:19;;;;;;;22.08;8.98;;;;;;;;;;2122761;27;20051;-40
2022/12/06 02:59:21;;;;;;;17.92;8.95;;;;;;;;;;2122741;28;20054;-40
2022/12/06 03:00:31;;;;;;;20.45;9.00;;;;;;;;;;2122743;28;20105;-40
2022/12/06 03:01:33;;;;;;;21.98;9.43;;;;;;;;;;2122728;28;20563;-41
2022/12/06 03:02:35;;;;;;;19.23;9.00;;;;;;;;;;2124305;27;20283;-45
2022/12/06 03:03:50;;;;;;;18.75;9.32;;;;;;;;;;2131162;27;20285;-45
2022/12/06 03:04:58;;;;;;;18.10;8.60;;;;;;;;;;2131205;27;20172;-45
2022/12/06 03:06:08;;;;;;;15.82;7.95;;;;;;;;;;2130907;27;20746;-41
2022/12/06 03:07:14;;;;;;;28.65;9.60;;;;;;;;;;2131075;27;20278;-44
2022/12/06 03:08:19;;;;;;;21.20;9.38;;;;;;;;;;2131047;27;20282;-41
2022/12/06 03:09:25;;;;;;;20.05;8.85;;;;;;;;;;2130484;27;20494;-41
2022/12/06 03:10:31;;;;;;;19.70;8.48;;;;;;;;;;2131254;27;20057;-41
2022/12/06 03:11:38;;;;;;;22.35;10.07;;;;;;;;;;2131507;27;20278;-45
2022/12/06 03:12:43;;;;;;;18.85;8.70;;;;;;;;;;2130750;27;20505;-40
2022/12/06 03:13:46;;;;;;;21.58;9.18;;;;;;;;;;2130957;27;20287;-46
2022/12/06 03:14:51;;;;;;;28.30;9.77;;;;;;;;;;2131471;27;20282;-41
2022/12/06 03:15:55;;;;;;;19.95;9.00;;;;;;;;;;2131418;27;20302;-41
2022/12/06 03:17:01;;;;;;;18.15;8.57;;;;;;;;;;2131079;27;20291;-41
2022/12/06 03:18:07;;;;;;;18.67;8.88;;;;;;;;;;2131486;27;20331;-45
2022/12/06 03:19:13;;;;;;;20.17;8.93;;;;;;;;;;2131290;27;20279;-41
2022/12/06 03:20:16;;;;;;;20.52;9.48;;;;;;;;;;2131461;27;20409;-40
2022/12/06 03:21:20;;;;;;;18.90;9.65;;;;;;;;;;2131215;27;20434;-41
2022/12/06 03:22:24;;;;;;;23.02;8.95;;;;;;;;;;2131433;27;20047;-46
2022/12/06 03:23:28;;;;;;;17.65;9.38;;;;;;;;;;2131105;27;20765;-41
2022/12/06 03:24:32;;;;;;;20.98;7.95;;;;;;;;;;2131421;27;20279;-46
2022/12/06 03:25:34;;;;;;;19.92;9.32;;;;;;;;;;2131394;27;20051;-45
2022/12/06 03:26:36;;;;;;;17.98;8.40;;;;;;;;;;2131174;27;20282;-40
2022/12/06 03:27:39;;;;;;;21.70;10.35;;;;;;;;;;2131259;27;20279;-46
2022/12/06 03:28:41;;;;;;;18.25;9.25;;;;;;;;;;2131178;27;20047;-44
2022/12/06 03:29:42;;;;;;;;;;;;;;;;;;2131897;27;20574;-40
2022/12/06 03:30:45;;;;;;;15.20;7.05;;;;;;;;;;2131303;27;20369;-45
2022/12/06 03:31:47;;;;;;;16.00;7.78;;;;;;;;;;2131192;27;20456;-46
2022/12/06 03:32:48;;;;;;;17.27;8.75;;;;;;;;;;2131306;27;20286;-41
2022/12/06 03:33:56;;;;;;;17.80;8.18;;;;;;;;;;2131231;27;20095;-45
2022/12/06 03:34:59;;;;;;;17.55;7.60;;;;;;;;;;2131197;27;20050;-40
2022/12/06 03:36:00;;;;;;;22.73;8.48;;;;;;;;;;2122540;27;20668;-40
2022/12/06 03:37:03;;;;;;;16.92;7.60;;;;;;;;;;2122636;28;20290;-44
2022/12/06 03:38:06;;;;;;;14.73;7.97;;;;;;;;;;2122705;27;20043;-41
2022/12/06 03:39:08;;;;;;;17.10;7.82;;;;;;;;;;2122746;28;20043;-41
2022/12/06 03:40:13;;;;;;;13.38;7.85;;;;;;;;;;2122742;28;20283;-41
2022/12/06 03:41:16;;;;;;;17.85;7.95;;;;;;;;;;2122908;28;20051;-41
2022/12/06 03:42:17;;;;;;;21.40;8.43;;;;;;;;;;2122567;28;20096;-45
2022/12/06 03:43:18;;;;;;;17.92;8.38;;;;;;;;;;2129802;27;20323;-45
2022/12/06 03:44:20;;;;;;;18.73;8.18;;;;;;;;;;2131172;27;20432;-40
2022/12/06 03:45:24;;;;;;;16.85;7.40;;;;;;;;;;2131377;27;20069;-45
2022/12/06 03:46:26;;;;;;;16.75;8.35;;;;;;;;;;2131024;27;20145;-41
2022/12/06 03:47:31;;;;;;;18.40;8.10;;;;;;;;;;2131089;27;20302;-45
2022/12/06 03:48:35;;;;;;;20.50;8.00;;;;;;;;;;2131128;27;20050;-41
2022/12/06 03:49:38;;;;;;;14.60;7.97;;;;;;;;;;2131018;27;20278;-41
2022/12/06 07:14:05;;;;;;;30.17;15.49;;;;;;;;;;4293677;27;20321;-48
2022/12/06 07:15:07;;;;;;;28.58;13.95;;;;;;;;;;2138270;27;20407;-49
2022/12/06 07:16:12;;;;;;;26.58;14.32;;;;;;;;;;2138441;27;20049;-49
2022/12/06 07:17:13;;;;;;;29.20;11.45;;;;;;;;;;2135573;27;20053;-48
2022/12/06 07:18:15;;;;;;;22.58;10.70;;;;;;;;;;2129992;27;20251;-42
2022/12/06 07:19:17;;;;;;;27.58;13.48;;;;;;;;;;2130082;27;20042;-49
2022/12/06 07:20:18;;;;;;;26.95;13.25;;;;;;;;;;2130076;27;20051;-49
2022/12/06 07:21:22;;;;;;;23.83;12.52;;;;;;;;;;2129529;27;20467;-48
2022/12/06 07:22:23;;;;;;;26.95;14.40;;;;;;;;;;2129940;27;20051;-48
2022/12/06 07:23:24;;;;;;;23.73;12.00;;;;;;;;;;2129796;27;20047;-50
2022/12/06 07:24:25;;;;;;;30.80;13.15;;;;;;;;;;2129653;27;20086;-48
2022/12/06 07:25:26;;;;;;;28.05;12.80;;;;;;;;;;2129758;27;20050;-48
2022/12/06 07:26:28;;;;;;;23.20;13.25;;;;;;;;;;2129615;27;20092;-50
2022/12/06 07:27:32;;;;;;;29.88;16.73;;;;;;;;;;2129539;27;20055;-48
2022/12/06 07:28:34;;;;;;;34.17;18.08;;;;;;;;;;2129713;27;20054;-48
2022/12/06 07:29:35;;;;;;;;;;;;;;;;;;2130156;27;20054;-49
2022/12/06 07:30:36;;;;;;;27.15;15.27;;;;;;;;;;2129647;27;19935;-48
2022/12/06 07:31:39;;;;;;;37.22;15.73;;;;;;;;;;2129999;27;20053;-48
2022/12/06 07:32:40;;;;;;;29.27;14.32;;;;;;;;;;2129432;27;20043;-48
2022/12/06 07:33:41;;;;;;;23.15;12.15;;;;;;;;;;2129474;27;20473;-48
2022/12/06 07:34:42;;;;;;;26.90;13.38;;;;;;;;;;2129777;27;20095;-48
2022/12/06 07:35:43;;;;;;;24.40;12.63;;;;;;;;;;2129484;27;20039;-48
2022/12/06 07:37:05;;;;;;;26.30;12.23;;;;;;;;;;2129453;27;20043;-48
2022/12/06 07:38:06;;;;;;;22.42;12.35;;;;;;;;;;2129281;27;20047;-50
2022/12/06 07:39:07;;;;;;;20.35;10.85;;;;;;;;;;2129673;27;20074;-50
2022/12/06 07:40:15;;;;;;;25.50;10.75;;;;;;;;;;2129520;27;20043;-50
2022/12/06 07:45:16;;;;;;;23.67;11.02;;;;;;;;;;2129571;27;20047;-49
2022/12/06 07:46:17;;;;;;;25.13;11.68;;;;;;;;;;2129622;27;20046;-48
2022/12/06 07:47:19;;;;;;;22.38;9.82;;;;;;;;;;2129411;27;20050;-47
2022/12/06 07:48:19;;;;;;;20.85;10.85;;;;;;;;;;2129584;27;20046;-47
2022/12/06 07:49:21;;;;;;;19.40;9.80;;;;;;;;;;2129630;27;20043;-48
2022/12/06 07:50:22;;;;;;;24.90;13.48;;;;;;;;;;2129521;27;20050;-48
2022/12/06 07:51:23;;;;;;;21.98;11.45;;;;;;;;;;2129441;27;20039;-49
2022/12/06 07:52:24;;;;;;;24.75;12.77;;;;;;;;;;2129419;27;20099;-48
2022/12/06 07:53:25;;;;;;;21.45;12.57;;;;;;;;;;2129395;27;20479;-49
2022/12/06 07:54:26;;;;;;;22.83;11.73;;;;;;;;;;2129552;27;20103;-49
2022/12/06 07:55:27;;;;;;;23.20;12.07;;;;;;;;;;2129319;27;20399;-48
2022/12/06 07:56:28;;;;;;;25.02;10.90;;;;;;;;;;2129489;27;20043;-51
2022/12/06 07:57:29;;;;;;;22.65;11.85;;;;;;;;;;2129396;27;20070;-48
2022/12/06 07:58:30;;;;;;;32.05;17.63;;;;;;;;;;2129586;27;20043;-48
2022/12/06 07:59:32;;;;;;;35.60;19.05;;;;;;;;;;2129483;27;20104;-50
2022/12/06 08:00:33;;;;;;;28.25;11.85;;;;;;;;;;2129365;27;20073;-48
2022/12/06 08:01:35;;;;;;;28.13;12.45;;;;;;;;;;2129538;27;20047;-48
2022/12/06 08:02:36;;;;;;;24.60;11.90;;;;;;;;;;2129254;27;20491;-50
2022/12/06 08:03:38;;;;;;;26.30;13.48;;;;;;;;;;2129303;27;20043;-49
2022/12/06 08:04:39;;;;;;;25.20;12.25;;;;;;;;;;2129400;27;20041;-48
2022/12/06 08:05:40;;;;;;;24.60;11.32;;;;;;;;;;2129427;27;20051;-48
2022/12/06 08:06:42;;;;;;;18.88;9.95;;;;;;;;;;2129431;27;20047;-47
2022/12/06 08:07:43;;;;;;;21.90;11.10;;;;;;;;;;2129322;27;20111;-47
2022/12/06 08:08:44;;;;;;;22.30;10.50;;;;;;;;;;2129207;27;20566;-47
2022/12/06 08:09:45;;;;;;;24.65;11.20;;;;;;;;;;2129394;27;20043;-50
2022/12/06 08:10:46;;;;;;;21.37;11.17;;;;;;;;;;2129672;27;20424;-47
2022/12/06 08:11:47;;;;;;;23.25;10.15;;;;;;;;;;2128687;27;20043;-47
2022/12/06 08:12:48;;;;;;;21.77;10.20;;;;;;;;;;2129306;27;20054;-48
2022/12/06 08:13:49;;;;;;;23.83;13.20;;;;;;;;;;2125220;27;20413;-47
2022/12/06 08:14:50;;;;;;;29.67;14.77;;;;;;;;;;2123643;28;20051;-48
2022/12/06 08:15:57;;;;;;;25.58;13.95;;;;;;;;;;2123582;28;20048;-49
2022/12/06 08:16:59;;;;;;;22.33;12.43;;;;;;;;;;2123545;28;20065;-48
2022/12/06 08:18:00;;;;;;;23.90;12.23;;;;;;;;;;2123423;28;20047;-47
2022/12/06 08:19:02;;;;;;;19.35;10.23;;;;;;;;;;2123615;27;20054;-48
2022/12/06 08:20:03;;;;;;;19.85;9.35;;;;;;;;;;2123587;28;20050;-47
2022/12/06 08:21:05;;;;;;;20.75;11.02;;;;;;;;;;2123602;28;20126;-48
2022/12/06 08:22:06;;;;;;;22.65;13.90;;;;;;;;;;2123545;28;20043;-51
2022/12/06 08:23:07;;;;;;;20.25;10.88;;;;;;;;;;2123476;28;20480;-47
2022/12/06 08:24:08;;;;;;;18.17;10.32;;;;;;;;;;2123508;28;20047;-48
2022/12/06 08:25:09;;;;;;;18.27;9.65;;;;;;;;;;2123538;28;20043;-48
2022/12/06 08:26:11;;;;;;;21.02;12.38;;;;;;;;;;2123659;28;20562;-50
2022/12/06 08:27:12;;;;;;;20.10;10.07;;;;;;;;;;2123308;28;20411;-48
2022/12/06 08:28:13;;;;;;;19.88;11.15;;;;;;;;;;2123481;28;20338;-49
2022/12/06 08:29:14;;;;;;;18.43;9.93;;;;;;;;;;2123502;28;20095;-47
2022/12/06 08:30:15;;;;;;;17.73;9.18;;;;;;;;;;2123609;28;20096;-46
2022/12/06 08:31:17;;;;;;;15.83;8.97;;;;;;;;;;2123426;27;20138;-47
2022/12/06 08:32:19;;;;;;;16.90;10.02;;;;;;;;;;2123249;28;20302;-48
2022/12/06 08:33:20;;;;;;;19.38;9.88;;;;;;;;;;2123504;28;20054;-49
2022/12/06 08:34:21;;;;;;;18.98;10.20;;;;;;;;;;2123518;28;20401;-47
2022/12/06 08:35:22;;;;;;;21.10;9.63;;;;;;;;;;2123440;28;20373;-48
2022/12/06 08:36:23;;;;;;;19.27;9.10;;;;;;;;;;2123425;28;20050;-48
2022/12/06 08:37:24;;;;;;;18.33;10.43;;;;;;;;;;2123462;28;20058;-48
2022/12/06 08:38:27;;;;;;;16.65;8.60;;;;;;;;;;2123556;28;20043;-48
2022/12/06 08:39:28;;;;;;;17.83;10.73;;;;;;;;;;2123414;28;20054;-50
2022/12/06 08:40:29;;;;;;;15.93;9.50;;;;;;;;;;2123419;28;20100;-51
2022/12/06 08:43:04;;;;;;;21.95;11.75;;;;;;;;;;2080407;28;20049;-48
2022/12/06 08:44:05;;;;;;;22.60;13.77;;;;;;;;;;2080589;28;20052;-49
2022/12/06 08:45:07;;;;;;;19.83;10.65;;;;;;;;;;2080455;28;20107;-47
2022/12/06 08:46:08;;;;;;;18.48;12.18;;;;;;;;;;2080501;28;20330;-47
2022/12/06 08:47:09;;;;;;;20.02;10.65;;;;;;;;;;2080370;28;20049;-48
2022/12/06 08:48:11;;;;;;;17.15;11.15;;;;;;;;;;2080473;28;20418;-49
2022/12/06 08:49:13;;;;;;;18.20;9.93;;;;;;;;;;2118271;28;20174;-47
2022/12/06 08:50:13;;;;;;;22.02;11.77;;;;;;;;;;2123293;28;20553;-49
2022/12/06 08:51:15;;;;;;;20.70;11.57;;;;;;;;;;2123205;28;20051;-48
2022/12/06 08:52:16;;;;;;;18.40;10.93;;;;;;;;;;2123177;28;20043;-47
2022/12/06 08:53:17;;;;;;;27.73;10.93;;;;;;;;;;2123366;28;20167;-50
2022/12/06 08:54:20;;;;;;;16.25;8.07;;;;;;;;;;2123232;28;20142;-48
2022/12/06 08:55:20;;;;;;;17.23;8.32;;;;;;;;;;2123264;28;20058;-49
2022/12/06 08:56:22;;;;;;;14.53;6.93;;;;;;;;;;2123391;28;20043;-48
2022/12/06 08:57:23;;;;;;;14.48;8.23;;;;;;;;;;2123129;28;20062;-47
2022/12/06 08:58:24;;;;;;;19.85;10.63;;;;;;;;;;2123333;28;20047;-49
2022/12/06 08:59:25;;;;;;;31.27;15.57;;;;;;;;;;2123362;28;20479;-49
2022/12/06 09:00:27;;;;;;;24.83;13.75;;;;;;;;;;2123314;28;20051;-48
2022/12/06 09:01:29;;;;;;;26.33;13.90;;;;;;;;;;2123276;28;20051;-47
2022/12/06 09:02:38;;;;;;;21.73;12.48;;;;;;;;;;2123116;28;20465;-49
2022/12/06 09:03:39;;;;;;;19.35;10.40;;;;;;;;;;2123276;28;20399;-49
2022/12/06 09:04:40;;;;;;;14.45;7.82;;;;;;;;;;2123451;28;20047;-50
2022/12/06 09:05:41;;;;;;;14.80;8.45;;;;;;;;;;2123274;28;20542;-48
2022/12/06 09:06:43;;;;;;;14.13;8.20;;;;;;;;;;2123247;28;20070;-47
2022/12/06 09:07:44;;;;;;;14.43;8.02;;;;;;;;;;2123111;28;20043;-50
2022/12/06 09:08:45;;;;;;;15.40;8.40;;;;;;;;;;2123070;28;20133;-47
2022/12/06 09:09:46;;;;;;;17.50;8.18;;;;;;;;;;2123278;28;20047;-47
2022/12/06 09:10:47;;;;;;;16.00;8.32;;;;;;;;;;2123666;28;20043;-43
2022/12/06 09:11:48;;;;;;;12.23;7.80;;;;;;;;;;2121907;28;20046;-43
2022/12/06 09:12:49;;;;;;;17.35;9.15;;;;;;;;;;2114497;28;20069;-43
2022/12/06 09:13:51;;;;;;;15.95;8.35;;;;;;;;;;2114876;28;20040;-43
2022/12/06 09:14:52;;;;;;;16.27;6.88;;;;;;;;;;2114836;28;20039;-43
2022/12/06 09:15:53;;;;;;;13.95;7.78;;;;;;;;;;2114537;28;20331;-43
2022/12/06 09:16:54;;;;;;;12.47;7.73;;;;;;;;;;2114895;28;20136;-43
2022/12/06 09:17:55;;;;;;;13.70;8.23;;;;;;;;;;2114583;28;20488;-43
2022/12/06 09:18:57;;;;;;;17.08;8.23;;;;;;;;;;2114570;28;20052;-43
2022/12/06 09:19:58;;;;;;;11.68;7.15;;;;;;;;;;2114784;28;20070;-43
2022/12/06 09:21:07;;;;;;;13.05;7.35;;;;;;;;;;2114655;28;20487;-43
2022/12/06 09:22:08;;;;;;;13.75;7.47;;;;;;;;;;2114683;28;20048;-43
2022/12/06 09:23:09;;;;;;;13.30;7.45;;;;;;;;;;2114766;28;20047;-43
2022/12/06 09:24:10;;;;;;;13.02;7.25;;;;;;;;;;2114672;28;20488;-43
2022/12/06 09:25:12;;;;;;;16.58;8.63;;;;;;;;;;2113974;28;20484;-43
2022/12/06 09:26:13;;;;;;;15.20;8.23;;;;;;;;;;2114248;28;20054;-43
2022/12/06 09:27:15;;;;;;;12.23;7.43;;;;;;;;;;2114531;28;20522;-43
2022/12/06 09:28:16;;;;;;;13.90;8.18;;;;;;;;;;2114500;28;20040;-43
2022/12/06 09:29:18;;;;;;;17.30;8.48;;;;;;;;;;2114558;28;20484;-43
2022/12/06 09:30:19;;;;;;;15.48;8.77;;;;;;;;;;2114630;28;20048;-43
2022/12/06 09:31:20;;;;;;;15.52;8.52;;;;;;;;;;2114698;28;20051;-43
2022/12/06 09:32:21;;;;;;;14.57;7.55;;;;;;;;;;2114475;28;20100;-43
2022/12/06 09:33:23;;;;;;;15.07;7.45;;;;;;;;;;2114579;28;20104;-43
2022/12/06 09:34:25;;;;;;;15.13;7.85;;;;;;;;;;2114624;28;20056;-43